KYKM/YKM METAR and TAF weather

Enter ICAO airport designator
Station Type Date Time Source
KYKM METAR 2019/02/16 18:01 UTC NOAA

KYKM 161801Z 00000KT 2 1/2SM -SN BR FEW006 BKN021 OVC032 00/M02 A2983 RMK AO2 P0000 T00001017


Station Type Date Time Source
KYKM Decoded METAR 2019/02/16 18:01 UTC NOAA

YAKIMA AIR TERMINAL, WA, United States (KYKM) 46-34N 120-32W 324M
Feb 16, 2019 - 01:01 PM EST / 2019.02.16 1801 UTC
Wind: Calm:0
Visibility: 2 1/2 mile(s):0
Sky conditions: overcast
Weather: light snow; mist
Precipitation last hour: A trace
Temperature: 32.0 F (0.0 C)
Dew Point: 28.9 F (-1.7 C)
Relative Humidity: 88%
Pressure (altimeter): 29.83 in. Hg (1010 hPa)
ob: KYKM 161801Z 00000KT 2 1/2SM -SN BR FEW006 BKN021 OVC032 00/M02 A2983 RMK AO2 P0000 T00001017
cycle: 18

Station Type Date Time Source
KYKM TAF 2019/02/16 18:27 UTC NOAA

TAF KYKM 161724Z 1618/1718 VRB04KT 5SM BR VCSH SCT007 OVC015
TEMPO 1618/1620 1SM -SN BR BKN012
FM170000 27005KT 5SM BR BKN007 OVC015
FM171200 VRB03KT 6SM BR SCT007 BKN040


Example: see airport list